sensor_id;sensor_type;location;lat;lon;timestamp;temperature;humidity
17687;DHT22;8962;52.538;13.266;2023-06-26T00:02:03;19.60;99.90
17687;DHT22;8962;52.538;13.266;2023-06-26T00:04:30;19.60;99.90
17687;DHT22;8962;52.538;13.266;2023-06-26T00:06:58;19.60;99.90
17687;DHT22;8962;52.538;13.266;2023-06-26T00:09:25;19.50;99.90
17687;DHT22;8962;52.538;13.266;2023-06-26T00:11:54;19.50;99.90
17687;DHT22;8962;52.538;13.266;2023-06-26T00:14:25;19.50;99.90
17687;DHT22;8962;52.538;13.266;2023-06-26T00:16:52;19.60;99.90
17687;DHT22;8962;52.538;13.266;2023-06-26T00:19:22;19.60;99.90
17687;DHT22;8962;52.538;13.266;2023-06-26T00:21:49;19.60;99.90
17687;DHT22;8962;52.538;13.266;2023-06-26T00:24:16;19.60;99.90
17687;DHT22;8962;52.538;13.266;2023-06-26T00:26:47;19.60;99.90
17687;DHT22;8962;52.538;13.266;2023-06-26T00:29:22;19.60;99.90
17687;DHT22;8962;52.538;13.266;2023-06-26T00:31:52;19.60;99.90
17687;DHT22;8962;52.538;13.266;2023-06-26T00:34:19;19.60;99.90
17687;DHT22;8962;52.538;13.266;2023-06-26T00:36:46;19.70;99.90
17687;DHT22;8962;52.538;13.266;2023-06-26T00:39:13;19.70;99.90
17687;DHT22;8962;52.538;13.266;2023-06-26T00:41:43;19.70;99.90
17687;DHT22;8962;52.538;13.266;2023-06-26T00:44:11;19.70;99.90
17687;DHT22;8962;52.538;13.266;2023-06-26T00:46:40;19.70;99.90
17687;DHT22;8962;52.538;13.266;2023-06-26T00:49:07;19.80;99.90
17687;DHT22;8962;52.538;13.266;2023-06-26T00:51:35;19.80;99.90
17687;DHT22;8962;52.538;13.266;2023-06-26T00:54:04;19.80;99.90
17687;DHT22;8962;52.538;13.266;2023-06-26T00:56:34;19.80;99.90
17687;DHT22;8962;52.538;13.266;2023-06-26T00:59:05;19.90;99.90
17687;DHT22;8962;52.538;13.266;2023-06-26T01:01:32;20.00;99.90
17687;DHT22;8962;52.538;13.266;2023-06-26T01:04:01;20.10;99.90
17687;DHT22;8962;52.538;13.266;2023-06-26T01:06:29;20.10;99.90
17687;DHT22;8962;52.538;13.266;2023-06-26T01:08:58;20.10;99.90
17687;DHT22;8962;52.538;13.266;2023-06-26T01:11:25;20.10;99.90
17687;DHT22;8962;52.538;13.266;2023-06-26T01:13:53;20.10;99.90
17687;DHT22;8962;52.538;13.266;2023-06-26T01:16:21;20.10;99.90
17687;DHT22;8962;52.538;13.266;2023-06-26T01:18:50;20.10;99.90
17687;DHT22;8962;52.538;13.266;2023-06-26T01:21:20;20.00;99.90
17687;DHT22;8962;52.538;13.266;2023-06-26T01:23:57;20.00;99.90
17687;DHT22;8962;52.538;13.266;2023-06-26T01:26:29;20.00;99.90
17687;DHT22;8962;52.538;13.266;2023-06-26T01:28:58;20.00;99.90
17687;DHT22;8962;52.538;13.266;2023-06-26T01:31:27;20.00;99.90
17687;DHT22;8962;52.538;13.266;2023-06-26T01:33:58;19.90;99.90
17687;DHT22;8962;52.538;13.266;2023-06-26T01:36:26;19.90;99.90
17687;DHT22;8962;52.538;13.266;2023-06-26T01:38:54;19.80;99.90
17687;DHT22;8962;52.538;13.266;2023-06-26T01:41:23;19.80;99.90
17687;DHT22;8962;52.538;13.266;2023-06-26T01:44:07;19.70;99.90
17687;DHT22;8962;52.538;13.266;2023-06-26T01:46:47;19.70;99.90
17687;DHT22;8962;52.538;13.266;2023-06-26T01:49:24;19.70;99.90
17687;DHT22;8962;52.538;13.266;2023-06-26T01:51:57;19.70;99.90
17687;DHT22;8962;52.538;13.266;2023-06-26T01:54:27;19.70;99.90
17687;DHT22;8962;52.538;13.266;2023-06-26T01:56:58;19.70;99.90
17687;DHT22;8962;52.538;13.266;2023-06-26T01:59:30;19.70;99.90
17687;DHT22;8962;52.538;13.266;2023-06-26T02:02:01;19.70;99.90
17687;DHT22;8962;52.538;13.266;2023-06-26T02:04:33;19.70;99.90
17687;DHT22;8962;52.538;13.266;2023-06-26T02:07:01;19.70;99.90
17687;DHT22;8962;52.538;13.266;2023-06-26T02:09:35;19.70;99.90
17687;DHT22;8962;52.538;13.266;2023-06-26T02:12:02;19.60;99.90
17687;DHT22;8962;52.538;13.266;2023-06-26T02:14:30;19.70;99.90
17687;DHT22;8962;52.538;13.266;2023-06-26T02:16:58;19.70;99.90
17687;DHT22;8962;52.538;13.266;2023-06-26T02:19:28;19.70;99.90
17687;DHT22;8962;52.538;13.266;2023-06-26T02:21:59;19.80;99.90
17687;DHT22;8962;52.538;13.266;2023-06-26T02:24:30;19.70;99.90
17687;DHT22;8962;52.538;13.266;2023-06-26T02:27:07;19.70;99.90
17687;DHT22;8962;52.538;13.266;2023-06-26T02:29:37;19.70;99.90
17687;DHT22;8962;52.538;13.266;2023-06-26T02:32:07;19.70;99.90
17687;DHT22;8962;52.538;13.266;2023-06-26T02:34:35;19.70;99.90
17687;DHT22;8962;52.538;13.266;2023-06-26T02:37:03;19.70;99.90
17687;DHT22;8962;52.538;13.266;2023-06-26T02:39:33;19.80;99.90
17687;DHT22;8962;52.538;13.266;2023-06-26T02:42:01;19.70;99.90
17687;DHT22;8962;52.538;13.266;2023-06-26T02:44:28;19.70;99.90
17687;DHT22;8962;52.538;13.266;2023-06-26T02:46:57;19.70;99.90
17687;DHT22;8962;52.538;13.266;2023-06-26T02:49:25;19.70;99.90
17687;DHT22;8962;52.538;13.266;2023-06-26T02:51:52;19.60;99.90
17687;DHT22;8962;52.538;13.266;2023-06-26T02:54:25;19.70;99.90
17687;DHT22;8962;52.538;13.266;2023-06-26T02:56:56;19.70;99.90
17687;DHT22;8962;52.538;13.266;2023-06-26T02:59:28;19.80;99.90
17687;DHT22;8962;52.538;13.266;2023-06-26T03:02:05;19.70;99.90
17687;DHT22;8962;52.538;13.266;2023-06-26T03:04:39;19.70;99.90
17687;DHT22;8962;52.538;13.266;2023-06-26T03:07:10;19.70;99.90
17687;DHT22;8962;52.538;13.266;2023-06-26T03:09:40;19.70;99.90
17687;DHT22;8962;52.538;13.266;2023-06-26T03:12:08;19.70;99.90
17687;DHT22;8962;52.538;13.266;2023-06-26T03:14:36;19.70;99.90
17687;DHT22;8962;52.538;13.266;2023-06-26T03:17:05;19.70;99.90
17687;DHT22;8962;52.538;13.266;2023-06-26T03:19:34;19.80;99.90
17687;DHT22;8962;52.538;13.266;2023-06-26T03:22:34;19.90;99.90
17687;DHT22;8962;52.538;13.266;2023-06-26T03:25:03;20.00;99.90
17687;DHT22;8962;52.538;13.266;2023-06-26T03:27:35;20.00;99.90
17687;DHT22;8962;52.538;13.266;2023-06-26T03:30:06;20.10;99.90
17687;DHT22;8962;52.538;13.266;2023-06-26T03:32:39;20.10;99.90
17687;DHT22;8962;52.538;13.266;2023-06-26T03:35:06;20.20;99.90
17687;DHT22;8962;52.538;13.266;2023-06-26T03:37:35;20.30;99.90
17687;DHT22;8962;52.538;13.266;2023-06-26T03:40:06;20.30;99.90
17687;DHT22;8962;52.538;13.266;2023-06-26T03:42:33;20.30;99.90
17687;DHT22;8962;52.538;13.266;2023-06-26T03:45:01;20.30;99.90
17687;DHT22;8962;52.538;13.266;2023-06-26T03:47:30;20.30;99.90
17687;DHT22;8962;52.538;13.266;2023-06-26T03:49:59;20.30;99.90
17687;DHT22;8962;52.538;13.266;2023-06-26T03:52:26;20.40;99.90
17687;DHT22;8962;52.538;13.266;2023-06-26T03:54:56;20.40;99.90
17687;DHT22;8962;52.538;13.266;2023-06-26T03:57:25;20.50;99.90
17687;DHT22;8962;52.538;13.266;2023-06-26T03:59:53;20.40;99.90
17687;DHT22;8962;52.538;13.266;2023-06-26T04:02:21;20.60;99.90
17687;DHT22;8962;52.538;13.266;2023-06-26T04:04:50;20.60;99.90
17687;DHT22;8962;52.538;13.266;2023-06-26T04:07:22;20.60;99.90
17687;DHT22;8962;52.538;13.266;2023-06-26T04:09:49;20.60;99.90
17687;DHT22;8962;52.538;13.266;2023-06-26T04:12:16;20.60;99.90
17687;DHT22;8962;52.538;13.266;2023-06-26T04:14:44;20.70;99.90
17687;DHT22;8962;52.538;13.266;2023-06-26T04:17:11;20.70;99.90
17687;DHT22;8962;52.538;13.266;2023-06-26T04:19:38;20.70;99.90
17687;DHT22;8962;52.538;13.266;2023-06-26T04:22:06;20.70;99.90
17687;DHT22;8962;52.538;13.266;2023-06-26T04:24:34;20.70;99.90
17687;DHT22;8962;52.538;13.266;2023-06-26T04:27:02;20.70;99.90
17687;DHT22;8962;52.538;13.266;2023-06-26T04:29:29;20.70;99.90
17687;DHT22;8962;52.538;13.266;2023-06-26T04:31:56;20.80;99.90
17687;DHT22;8962;52.538;13.266;2023-06-26T04:34:25;20.80;99.90
17687;DHT22;8962;52.538;13.266;2023-06-26T04:36:52;20.90;99.90
17687;DHT22;8962;52.538;13.266;2023-06-26T04:39:20;21.00;99.90
17687;DHT22;8962;52.538;13.266;2023-06-26T04:41:49;20.90;99.90
17687;DHT22;8962;52.538;13.266;2023-06-26T04:44:17;21.00;99.90
17687;DHT22;8962;52.538;13.266;2023-06-26T04:46:44;21.10;99.90
17687;DHT22;8962;52.538;13.266;2023-06-26T04:49:11;21.10;99.90
17687;DHT22;8962;52.538;13.266;2023-06-26T04:51:39;21.30;99.90
17687;DHT22;8962;52.538;13.266;2023-06-26T04:54:06;21.40;99.90
17687;DHT22;8962;52.538;13.266;2023-06-26T04:56:34;21.60;99.90
17687;DHT22;8962;52.538;13.266;2023-06-26T04:59:03;21.90;99.90
17687;DHT22;8962;52.538;13.266;2023-06-26T05:01:30;22.10;99.90
17687;DHT22;8962;52.538;13.266;2023-06-26T05:03:58;22.20;99.90
17687;DHT22;8962;52.538;13.266;2023-06-26T05:06:25;22.40;99.90
17687;DHT22;8962;52.538;13.266;2023-06-26T05:08:53;22.50;99.90
17687;DHT22;8962;52.538;13.266;2023-06-26T05:11:21;22.50;99.90
17687;DHT22;8962;52.538;13.266;2023-06-26T05:13:48;22.50;99.90
17687;DHT22;8962;52.538;13.266;2023-06-26T05:16:17;22.50;99.90
17687;DHT22;8962;52.538;13.266;2023-06-26T05:18:45;22.60;99.90
17687;DHT22;8962;52.538;13.266;2023-06-26T05:21:16;22.60;99.90
17687;DHT22;8962;52.538;13.266;2023-06-26T05:23:44;22.60;99.90
17687;DHT22;8962;52.538;13.266;2023-06-26T05:26:12;22.50;99.90
17687;DHT22;8962;52.538;13.266;2023-06-26T05:28:40;22.50;99.90
17687;DHT22;8962;52.538;13.266;2023-06-26T05:31:10;22.40;99.90
17687;DHT22;8962;52.538;13.266;2023-06-26T05:33:39;22.40;99.90
17687;DHT22;8962;52.538;13.266;2023-06-26T05:36:10;22.30;99.90
17687;DHT22;8962;52.538;13.266;2023-06-26T05:38:39;22.30;99.90
17687;DHT22;8962;52.538;13.266;2023-06-26T05:41:07;22.40;99.90
17687;DHT22;8962;52.538;13.266;2023-06-26T05:43:34;22.40;99.90
17687;DHT22;8962;52.538;13.266;2023-06-26T05:46:01;22.50;99.90
17687;DHT22;8962;52.538;13.266;2023-06-26T05:48:28;22.60;99.90
17687;DHT22;8962;52.538;13.266;2023-06-26T05:50:58;22.70;99.90
17687;DHT22;8962;52.538;13.266;2023-06-26T05:53:26;22.70;99.90
17687;DHT22;8962;52.538;13.266;2023-06-26T05:55:54;22.80;99.90
17687;DHT22;8962;52.538;13.266;2023-06-26T05:58:21;23.00;99.90
17687;DHT22;8962;52.538;13.266;2023-06-26T06:00:50;23.10;99.90
17687;DHT22;8962;52.538;13.266;2023-06-26T06:03:17;23.30;99.90
17687;DHT22;8962;52.538;13.266;2023-06-26T06:05:45;23.30;99.90
17687;DHT22;8962;52.538;13.266;2023-06-26T06:08:13;23.50;99.90
17687;DHT22;8962;52.538;13.266;2023-06-26T06:10:40;23.60;99.90
17687;DHT22;8962;52.538;13.266;2023-06-26T06:13:08;23.80;99.90
17687;DHT22;8962;52.538;13.266;2023-06-26T06:15:35;23.80;99.90
17687;DHT22;8962;52.538;13.266;2023-06-26T06:18:02;23.90;99.90
17687;DHT22;8962;52.538;13.266;2023-06-26T06:20:30;23.90;99.90
17687;DHT22;8962;52.538;13.266;2023-06-26T06:23:01;24.00;99.90
17687;DHT22;8962;52.538;13.266;2023-06-26T06:25:29;24.20;99.90
17687;DHT22;8962;52.538;13.266;2023-06-26T06:27:56;24.30;99.90
17687;DHT22;8962;52.538;13.266;2023-06-26T06:30:23;24.50;99.90
17687;DHT22;8962;52.538;13.266;2023-06-26T06:32:54;24.70;99.90
17687;DHT22;8962;52.538;13.266;2023-06-26T06:35:21;24.80;99.90
17687;DHT22;8962;52.538;13.266;2023-06-26T06:37:49;24.80;99.90
17687;DHT22;8962;52.538;13.266;2023-06-26T06:40:16;24.90;99.90
17687;DHT22;8962;52.538;13.266;2023-06-26T06:42:45;25.00;99.90
17687;DHT22;8962;52.538;13.266;2023-06-26T06:45:14;25.10;99.90
17687;DHT22;8962;52.538;13.266;2023-06-26T06:47:41;25.30;99.90
17687;DHT22;8962;52.538;13.266;2023-06-26T06:50:08;25.40;99.90
17687;DHT22;8962;52.538;13.266;2023-06-26T06:52:39;25.60;99.90
17687;DHT22;8962;52.538;13.266;2023-06-26T06:55:07;25.60;99.90
17687;DHT22;8962;52.538;13.266;2023-06-26T06:57:35;25.80;99.90
17687;DHT22;8962;52.538;13.266;2023-06-26T07:00:07;25.80;99.90
17687;DHT22;8962;52.538;13.266;2023-06-26T07:02:38;26.10;99.90
17687;DHT22;8962;52.538;13.266;2023-06-26T07:05:09;26.30;99.90
17687;DHT22;8962;52.538;13.266;2023-06-26T07:07:37;26.50;99.90
17687;DHT22;8962;52.538;13.266;2023-06-26T07:10:06;26.60;99.90
17687;DHT22;8962;52.538;13.266;2023-06-26T07:12:42;26.50;99.90
17687;DHT22;8962;52.538;13.266;2023-06-26T07:15:11;26.60;99.90
17687;DHT22;8962;52.538;13.266;2023-06-26T07:17:39;26.70;99.90
17687;DHT22;8962;52.538;13.266;2023-06-26T07:20:06;26.90;99.90
17687;DHT22;8962;52.538;13.266;2023-06-26T07:22:35;26.80;99.90
17687;DHT22;8962;52.538;13.266;2023-06-26T07:25:04;26.90;99.90
17687;DHT22;8962;52.538;13.266;2023-06-26T07:27:34;26.80;99.90
17687;DHT22;8962;52.538;13.266;2023-06-26T07:30:06;27.00;99.90
17687;DHT22;8962;52.538;13.266;2023-06-26T07:32:36;27.00;99.90
17687;DHT22;8962;52.538;13.266;2023-06-26T07:35:04;27.00;99.90
17687;DHT22;8962;52.538;13.266;2023-06-26T07:37:32;27.20;99.90
17687;DHT22;8962;52.538;13.266;2023-06-26T07:39:59;27.20;99.90
17687;DHT22;8962;52.538;13.266;2023-06-26T07:42:27;27.40;99.90
17687;DHT22;8962;52.538;13.266;2023-06-26T07:44:54;27.60;99.90
17687;DHT22;8962;52.538;13.266;2023-06-26T07:47:22;27.90;99.90
17687;DHT22;8962;52.538;13.266;2023-06-26T07:49:51;28.00;99.90
17687;DHT22;8962;52.538;13.266;2023-06-26T07:52:20;28.10;99.90
17687;DHT22;8962;52.538;13.266;2023-06-26T07:54:47;28.30;99.90
17687;DHT22;8962;52.538;13.266;2023-06-26T07:57:14;28.50;99.90
17687;DHT22;8962;52.538;13.266;2023-06-26T07:59:42;28.40;99.90
17687;DHT22;8962;52.538;13.266;2023-06-26T08:02:09;28.50;99.90
17687;DHT22;8962;52.538;13.266;2023-06-26T08:04:36;28.60;99.90
17687;DHT22;8962;52.538;13.266;2023-06-26T08:07:05;28.70;99.90
17687;DHT22;8962;52.538;13.266;2023-06-26T08:09:32;28.80;99.90
17687;DHT22;8962;52.538;13.266;2023-06-26T08:12:00;29.00;99.90
17687;DHT22;8962;52.538;13.266;2023-06-26T08:14:27;29.00;99.90
17687;DHT22;8962;52.538;13.266;2023-06-26T08:16:54;29.20;99.90
17687;DHT22;8962;52.538;13.266;2023-06-26T08:19:21;29.40;99.90
17687;DHT22;8962;52.538;13.266;2023-06-26T08:21:49;29.30;99.50
17687;DHT22;8962;52.538;13.266;2023-06-26T08:24:17;29.60;99.80
17687;DHT22;8962;52.538;13.266;2023-06-26T08:26:45;29.70;99.80
17687;DHT22;8962;52.538;13.266;2023-06-26T08:29:12;29.50;99.90
17687;DHT22;8962;52.538;13.266;2023-06-26T08:31:40;29.50;99.40
17687;DHT22;8962;52.538;13.266;2023-06-26T08:34:07;29.60;98.70
17687;DHT22;8962;52.538;13.266;2023-06-26T08:36:35;29.60;98.50
17687;DHT22;8962;52.538;13.266;2023-06-26T08:39:02;29.70;98.50
17687;DHT22;8962;52.538;13.266;2023-06-26T08:41:33;29.50;98.00
17687;DHT22;8962;52.538;13.266;2023-06-26T08:44:02;29.50;98.30
17687;DHT22;8962;52.538;13.266;2023-06-26T08:46:31;29.60;98.30
17687;DHT22;8962;52.538;13.266;2023-06-26T08:49:01;29.70;97.90
17687;DHT22;8962;52.538;13.266;2023-06-26T08:51:36;29.90;97.20
17687;DHT22;8962;52.538;13.266;2023-06-26T08:54:08;30.00;96.50
17687;DHT22;8962;52.538;13.266;2023-06-26T08:56:42;30.10;96.40
17687;DHT22;8962;52.538;13.266;2023-06-26T08:59:09;30.10;96.10
17687;DHT22;8962;52.538;13.266;2023-06-26T09:01:38;30.10;96.30
17687;DHT22;8962;52.538;13.266;2023-06-26T09:04:06;30.30;95.70
17687;DHT22;8962;52.538;13.266;2023-06-26T09:06:34;30.50;95.00
17687;DHT22;8962;52.538;13.266;2023-06-26T09:09:01;30.60;93.60
17687;DHT22;8962;52.538;13.266;2023-06-26T09:11:29;30.60;93.10
17687;DHT22;8962;52.538;13.266;2023-06-26T09:14:02;30.20;92.80
17687;DHT22;8962;52.538;13.266;2023-06-26T09:16:31;30.60;92.90
17687;DHT22;8962;52.538;13.266;2023-06-26T09:18:58;30.70;92.50
17687;DHT22;8962;52.538;13.266;2023-06-26T09:21:25;30.80;91.90
17687;DHT22;8962;52.538;13.266;2023-06-26T09:23:52;30.70;91.10
17687;DHT22;8962;52.538;13.266;2023-06-26T09:26:21;30.70;91.80
17687;DHT22;8962;52.538;13.266;2023-06-26T09:28:49;30.70;91.90
17687;DHT22;8962;52.538;13.266;2023-06-26T09:31:20;30.70;92.20
17687;DHT22;8962;52.538;13.266;2023-06-26T09:33:49;30.60;91.40
17687;DHT22;8962;52.538;13.266;2023-06-26T09:36:22;30.60;91.30
17687;DHT22;8962;52.538;13.266;2023-06-26T09:38:51;30.90;90.70
17687;DHT22;8962;52.538;13.266;2023-06-26T09:41:18;31.00;89.10
17687;DHT22;8962;52.538;13.266;2023-06-26T09:43:46;31.00;89.50
17687;DHT22;8962;52.538;13.266;2023-06-26T09:46:15;30.80;88.90
17687;DHT22;8962;52.538;13.266;2023-06-26T09:48:46;31.00;87.00
17687;DHT22;8962;52.538;13.266;2023-06-26T09:51:16;31.00;87.90
17687;DHT22;8962;52.538;13.266;2023-06-26T09:53:49;31.00;87.40
17687;DHT22;8962;52.538;13.266;2023-06-26T09:56:19;31.10;87.30
17687;DHT22;8962;52.538;13.266;2023-06-26T09:58:47;30.90;87.40
17687;DHT22;8962;52.538;13.266;2023-06-26T10:01:16;30.90;87.20
17687;DHT22;8962;52.538;13.266;2023-06-26T10:03:45;31.00;86.20
17687;DHT22;8962;52.538;13.266;2023-06-26T10:06:12;31.20;85.50
17687;DHT22;8962;52.538;13.266;2023-06-26T10:08:42;31.40;85.50
17687;DHT22;8962;52.538;13.266;2023-06-26T10:11:16;31.30;86.00
17687;DHT22;8962;52.538;13.266;2023-06-26T10:13:47;31.20;83.80
17687;DHT22;8962;52.538;13.266;2023-06-26T10:16:22;31.10;83.10
17687;DHT22;8962;52.538;13.266;2023-06-26T10:18:58;31.30;82.50
17687;DHT22;8962;52.538;13.266;2023-06-26T10:21:26;31.20;81.80
17687;DHT22;8962;52.538;13.266;2023-06-26T10:23:56;31.40;78.90
17687;DHT22;8962;52.538;13.266;2023-06-26T10:26:24;31.40;78.20
17687;DHT22;8962;52.538;13.266;2023-06-26T10:28:54;31.30;78.20
17687;DHT22;8962;52.538;13.266;2023-06-26T10:31:25;31.10;80.20
17687;DHT22;8962;52.538;13.266;2023-06-26T10:33:55;31.10;78.90
17687;DHT22;8962;52.538;13.266;2023-06-26T10:36:31;31.10;81.00
17687;DHT22;8962;52.538;13.266;2023-06-26T10:39:03;31.30;78.30
17687;DHT22;8962;52.538;13.266;2023-06-26T10:41:37;31.30;78.60
17687;DHT22;8962;52.538;13.266;2023-06-26T10:44:07;31.40;77.90
17687;DHT22;8962;52.538;13.266;2023-06-26T10:46:48;31.70;78.40
17687;DHT22;8962;52.538;13.266;2023-06-26T10:49:18;31.60;77.70
17687;DHT22;8962;52.538;13.266;2023-06-26T10:51:49;31.60;76.00
17687;DHT22;8962;52.538;13.266;2023-06-26T10:54:18;31.50;76.00
17687;DHT22;8962;52.538;13.266;2023-06-26T10:56:46;31.80;75.30
17687;DHT22;8962;52.538;13.266;2023-06-26T10:59:15;31.90;72.00
17687;DHT22;8962;52.538;13.266;2023-06-26T11:01:43;32.10;72.70
17687;DHT22;8962;52.538;13.266;2023-06-26T11:04:12;32.30;71.40
17687;DHT22;8962;52.538;13.266;2023-06-26T11:06:45;32.40;71.20
17687;DHT22;8962;52.538;13.266;2023-06-26T11:09:17;32.10;71.10
17687;DHT22;8962;52.538;13.266;2023-06-26T11:11:58;31.90;72.50
17687;DHT22;8962;52.538;13.266;2023-06-26T11:14:30;32.00;74.60
17687;DHT22;8962;52.538;13.266;2023-06-26T11:16:58;32.30;71.30
17687;DHT22;8962;52.538;13.266;2023-06-26T11:19:27;32.40;72.40
17687;DHT22;8962;52.538;13.266;2023-06-26T11:22:01;32.30;70.40
17687;DHT22;8962;52.538;13.266;2023-06-26T11:24:30;32.10;70.10
17687;DHT22;8962;52.538;13.266;2023-06-26T11:27:04;32.30;70.80
17687;DHT22;8962;52.538;13.266;2023-06-26T11:29:32;32.40;70.00
17687;DHT22;8962;52.538;13.266;2023-06-26T11:32:02;32.30;68.30
17687;DHT22;8962;52.538;13.266;2023-06-26T11:34:33;32.60;68.00
17687;DHT22;8962;52.538;13.266;2023-06-26T11:37:06;32.70;66.30
17687;DHT22;8962;52.538;13.266;2023-06-26T11:39:33;33.30;66.10
17687;DHT22;8962;52.538;13.266;2023-06-26T11:42:05;34.40;59.90
17687;DHT22;8962;52.538;13.266;2023-06-26T11:44:41;35.60;56.80
17687;DHT22;8962;52.538;13.266;2023-06-26T11:47:14;36.30;52.40
17687;DHT22;8962;52.538;13.266;2023-06-26T11:49:43;36.80;49.30
17687;DHT22;8962;52.538;13.266;2023-06-26T11:52:14;37.30;44.30
17687;DHT22;8962;52.538;13.266;2023-06-26T11:54:43;37.30;40.30
17687;DHT22;8962;52.538;13.266;2023-06-26T11:57:14;37.40;39.50
17687;DHT22;8962;52.538;13.266;2023-06-26T11:59:43;37.60;37.70
17687;DHT22;8962;52.538;13.266;2023-06-26T12:02:12;38.00;36.40
17687;DHT22;8962;52.538;13.266;2023-06-26T12:04:41;38.70;33.70
17687;DHT22;8962;52.538;13.266;2023-06-26T12:07:09;38.80;32.50
17687;DHT22;8962;52.538;13.266;2023-06-26T12:09:43;38.20;33.70
17687;DHT22;8962;52.538;13.266;2023-06-26T12:12:14;38.60;32.80
17687;DHT22;8962;52.538;13.266;2023-06-26T12:14:42;38.50;31.50
17687;DHT22;8962;52.538;13.266;2023-06-26T12:17:11;38.90;30.60
17687;DHT22;8962;52.538;13.266;2023-06-26T12:19:42;39.30;29.30
17687;DHT22;8962;52.538;13.266;2023-06-26T12:22:10;40.10;27.90
17687;DHT22;8962;52.538;13.266;2023-06-26T12:24:38;39.50;28.10
17687;DHT22;8962;52.538;13.266;2023-06-26T12:27:13;38.80;28.80
17687;DHT22;8962;52.538;13.266;2023-06-26T12:29:45;39.00;29.20
17687;DHT22;8962;52.538;13.266;2023-06-26T12:32:14;39.20;28.70
17687;DHT22;8962;52.538;13.266;2023-06-26T12:34:46;39.30;28.50
17687;DHT22;8962;52.538;13.266;2023-06-26T12:37:13;39.10;28.20
17687;DHT22;8962;52.538;13.266;2023-06-26T12:39:48;39.40;27.70
17687;DHT22;8962;52.538;13.266;2023-06-26T12:42:19;38.90;28.10
17687;DHT22;8962;52.538;13.266;2023-06-26T12:44:49;38.50;28.70
17687;DHT22;8962;52.538;13.266;2023-06-26T12:47:18;38.30;28.00
17687;DHT22;8962;52.538;13.266;2023-06-26T12:49:49;38.70;27.60
17687;DHT22;8962;52.538;13.266;2023-06-26T12:52:17;39.00;27.40
17687;DHT22;8962;52.538;13.266;2023-06-26T12:54:58;39.00;28.20
17687;DHT22;8962;52.538;13.266;2023-06-26T12:57:26;38.90;27.30
17687;DHT22;8962;52.538;13.266;2023-06-26T12:59:54;38.30;28.00
17687;DHT22;8962;52.538;13.266;2023-06-26T13:02:21;37.40;29.00
17687;DHT22;8962;52.538;13.266;2023-06-26T13:04:49;36.80;30.60
17687;DHT22;8962;52.538;13.266;2023-06-26T13:07:17;35.90;32.70
17687;DHT22;8962;52.538;13.266;2023-06-26T13:09:44;34.70;35.30
17687;DHT22;8962;52.538;13.266;2023-06-26T13:12:14;34.00;38.50
17687;DHT22;8962;52.538;13.266;2023-06-26T13:14:43;33.50;39.40
17687;DHT22;8962;52.538;13.266;2023-06-26T13:17:13;32.70;42.40
17687;DHT22;8962;52.538;13.266;2023-06-26T13:19:44;32.20;43.30
17687;DHT22;8962;52.538;13.266;2023-06-26T13:22:14;32.00;45.00
17687;DHT22;8962;52.538;13.266;2023-06-26T13:24:41;31.80;46.00
17687;DHT22;8962;52.538;13.266;2023-06-26T13:27:08;31.60;47.50
17687;DHT22;8962;52.538;13.266;2023-06-26T13:29:35;31.20;49.10
17687;DHT22;8962;52.538;13.266;2023-06-26T13:32:06;31.00;50.90
17687;DHT22;8962;52.538;13.266;2023-06-26T13:34:33;30.80;51.40
17687;DHT22;8962;52.538;13.266;2023-06-26T13:37:00;30.80;52.70
17687;DHT22;8962;52.538;13.266;2023-06-26T13:39:27;30.80;53.00
17687;DHT22;8962;52.538;13.266;2023-06-26T13:41:54;30.70;53.80
17687;DHT22;8962;52.538;13.266;2023-06-26T13:44:22;30.60;54.40
17687;DHT22;8962;52.538;13.266;2023-06-26T13:46:49;30.60;55.50
17687;DHT22;8962;52.538;13.266;2023-06-26T13:49:17;30.50;56.30
17687;DHT22;8962;52.538;13.266;2023-06-26T13:51:45;30.60;57.30
17687;DHT22;8962;52.538;13.266;2023-06-26T13:54:13;30.60;57.40
17687;DHT22;8962;52.538;13.266;2023-06-26T13:56:42;30.60;58.10
17687;DHT22;8962;52.538;13.266;2023-06-26T13:59:09;30.50;58.20
17687;DHT22;8962;52.538;13.266;2023-06-26T14:01:37;30.40;59.30
17687;DHT22;8962;52.538;13.266;2023-06-26T14:04:05;30.20;59.90
17687;DHT22;8962;52.538;13.266;2023-06-26T14:06:34;30.00;62.30
17687;DHT22;8962;52.538;13.266;2023-06-26T14:09:01;29.10;70.70
17687;DHT22;8962;52.538;13.266;2023-06-26T14:11:29;27.90;99.40
17687;DHT22;8962;52.538;13.266;2023-06-26T14:13:58;25.70;99.90
17687;DHT22;8962;52.538;13.266;2023-06-26T14:16:25;23.90;99.90
17687;DHT22;8962;52.538;13.266;2023-06-26T14:18:54;22.70;99.90
17687;DHT22;8962;52.538;13.266;2023-06-26T14:21:22;21.90;99.90
17687;DHT22;8962;52.538;13.266;2023-06-26T14:23:54;20.40;99.90
17687;DHT22;8962;52.538;13.266;2023-06-26T14:26:23;19.70;99.90
17687;DHT22;8962;52.538;13.266;2023-06-26T14:28:50;19.60;99.90
17687;DHT22;8962;52.538;13.266;2023-06-26T14:31:18;19.70;99.90
17687;DHT22;8962;52.538;13.266;2023-06-26T14:33:45;19.80;99.90
17687;DHT22;8962;52.538;13.266;2023-06-26T14:36:12;19.80;99.90
17687;DHT22;8962;52.538;13.266;2023-06-26T14:38:39;19.80;99.90
17687;DHT22;8962;52.538;13.266;2023-06-26T14:41:08;19.80;99.90
17687;DHT22;8962;52.538;13.266;2023-06-26T14:43:36;19.90;99.90
17687;DHT22;8962;52.538;13.266;2023-06-26T14:46:03;20.00;99.90
17687;DHT22;8962;52.538;13.266;2023-06-26T14:48:31;20.00;99.90
17687;DHT22;8962;52.538;13.266;2023-06-26T14:50:58;20.20;99.90
17687;DHT22;8962;52.538;13.266;2023-06-26T14:53:27;20.30;99.90
17687;DHT22;8962;52.538;13.266;2023-06-26T14:55:54;20.40;99.90
17687;DHT22;8962;52.538;13.266;2023-06-26T14:58:25;20.50;99.90
17687;DHT22;8962;52.538;13.266;2023-06-26T15:00:52;19.90;99.90
17687;DHT22;8962;52.538;13.266;2023-06-26T15:03:19;19.40;99.90
17687;DHT22;8962;52.538;13.266;2023-06-26T15:05:46;19.00;99.90
17687;DHT22;8962;52.538;13.266;2023-06-26T15:08:14;18.70;99.90
17687;DHT22;8962;52.538;13.266;2023-06-26T15:10:42;18.60;99.90
17687;DHT22;8962;52.538;13.266;2023-06-26T15:13:09;18.60;99.90
17687;DHT22;8962;52.538;13.266;2023-06-26T15:15:38;18.60;99.90
17687;DHT22;8962;52.538;13.266;2023-06-26T15:18:05;18.80;99.90
17687;DHT22;8962;52.538;13.266;2023-06-26T15:20:33;18.90;99.90
17687;DHT22;8962;52.538;13.266;2023-06-26T15:23:00;19.10;99.90
17687;DHT22;8962;52.538;13.266;2023-06-26T15:25:30;19.30;99.90
17687;DHT22;8962;52.538;13.266;2023-06-26T15:28:01;19.50;99.90
17687;DHT22;8962;52.538;13.266;2023-06-26T15:30:28;19.80;99.90
17687;DHT22;8962;52.538;13.266;2023-06-26T15:32:57;19.90;99.90
17687;DHT22;8962;52.538;13.266;2023-06-26T15:35:26;19.90;99.90
17687;DHT22;8962;52.538;13.266;2023-06-26T15:37:55;20.00;99.90
17687;DHT22;8962;52.538;13.266;2023-06-26T15:40:22;20.00;99.90
17687;DHT22;8962;52.538;13.266;2023-06-26T15:42:52;20.10;99.90